Time;durP1;ratioP1;P1;durP2;ratioP2;P2;SDS_P1;SDS_P2;PMS_P1;PMS_P2;Temp;Humidity;BMP_temperature;BMP_pressure;BME280_temperature;BME280_humidity;BME280_pressure;Samples;Min_cycle;Max_cycle;Signal;HPM_P1;HPM_P2
2023/03/04 00:00:06;;;;;;;26.27;11.43;;;0.20;99.90;;;;;;5074599;28;20483;-70
2023/03/04 00:02:32;;;;;;;23.53;10.00;;;0.10;99.90;;;;;;5076373;28;20941;-70
2023/03/04 00:04:59;;;;;;;30.27;12.17;;;0.20;99.90;;;;;;5075220;28;20478;-70
2023/03/04 00:07:26;;;;;;;26.77;11.93;;;0.10;99.90;;;;;;5074596;28;20456;-70
2023/03/04 00:09:52;;;;;;;27.20;12.47;;;0.10;99.90;;;;;;5074274;28;20509;-70
2023/03/04 00:12:19;;;;;;;25.13;12.30;;;0.10;99.90;;;;;;5074535;28;20981;-70
2023/03/04 00:14:47;;;;;;;26.07;13.40;;;0.00;99.90;;;;;;5074600;28;20468;-70
2023/03/04 00:17:14;;;;;;;38.53;15.07;;;0.00;99.90;;;;;;5074743;28;20914;-70
2023/03/04 00:19:40;;;;;;;29.30;13.13;;;0.00;99.90;;;;;;5075142;28;20533;-70
2023/03/04 00:25:29;;;;;;;26.50;12.60;;;-0.10;99.90;;;;;;5081306;28;20498;-70
2023/03/04 00:27:57;;;;;;;25.60;12.00;;;-0.10;99.90;;;;;;5074585;28;20453;-69
2023/03/04 00:30:25;;;;;;;28.00;12.70;;;-0.10;99.90;;;;;;5073997;28;20821;-70
2023/03/04 00:32:51;;;;;;;28.67;12.17;;;-0.10;99.90;;;;;;5074211;28;20940;-70
2023/03/04 00:35:18;;;;;;;25.43;12.90;;;-0.20;99.90;;;;;;5073811;28;20454;-70
2023/03/04 00:37:45;;;;;;;25.60;12.57;;;-0.10;99.90;;;;;;5073995;28;20474;-70
2023/03/04 00:40:12;;;;;;;34.40;14.10;;;-0.20;99.90;;;;;;5074648;28;20460;-70
2023/03/04 00:42:39;;;;;;;38.43;15.83;;;-0.30;99.90;;;;;;5073380;28;20483;-70
2023/03/04 00:45:07;;;;;;;34.87;15.30;;;-0.20;99.90;;;;;;5076401;28;20505;-70
2023/03/04 00:47:35;;;;;;;36.10;15.47;;;-0.20;99.90;;;;;;5073948;28;20508;-70
2023/03/04 00:50:01;;;;;;;31.60;14.10;;;-0.20;99.90;;;;;;5080436;28;20678;-70
2023/03/04 00:52:28;;;;;;;38.13;14.90;;;-0.10;99.90;;;;;;5075519;28;20448;-70
2023/03/04 00:54:55;;;;;;;36.03;16.40;;;-0.10;99.90;;;;;;5073698;28;20897;-70
2023/03/04 00:57:21;;;;;;;34.10;13.97;;;0.00;99.90;;;;;;5073387;28;20932;-70
2023/03/04 00:59:48;;;;;;;31.90;14.13;;;0.00;99.90;;;;;;5078093;28;20916;-70
2023/03/04 01:02:15;;;;;;;36.43;15.33;;;0.00;99.90;;;;;;5075600;28;20825;-70
2023/03/04 01:04:42;;;;;;;30.00;15.30;;;0.20;99.90;;;;;;5073459;28;20980;-70
2023/03/04 01:07:09;;;;;;;35.10;15.43;;;0.20;99.90;;;;;;5076922;28;20938;-70
2023/03/04 01:09:36;;;;;;;34.57;15.53;;;0.30;99.90;;;;;;5074179;28;20452;-70
2023/03/04 01:12:03;;;;;;;34.33;16.00;;;0.40;99.90;;;;;;5076456;28;20456;-70
2023/03/04 01:14:29;;;;;;;29.70;13.20;;;0.40;99.90;;;;;;5073415;28;20476;-70
2023/03/04 01:16:56;;;;;;;37.33;15.97;;;0.50;99.90;;;;;;5079124;28;20509;-70
2023/03/04 01:19:23;;;;;;;36.93;15.70;;;0.60;99.90;;;;;;5075742;28;20850;-70
2023/03/04 01:21:51;;;;;;;37.30;16.10;;;0.60;99.90;;;;;;5073693;28;20478;-70
2023/03/04 01:24:17;;;;;;;31.50;15.60;;;0.70;99.90;;;;;;5073077;28;20521;-70
2023/03/04 01:26:44;;;;;;;35.57;15.37;;;0.70;99.90;;;;;;5075602;28;20450;-70
2023/03/04 01:29:11;;;;;;;32.57;15.50;;;0.80;99.90;;;;;;5073339;28;20517;-70
2023/03/04 01:31:38;;;;;;;35.43;15.10;;;0.90;99.90;;;;;;5073375;28;20477;-70
2023/03/04 01:34:04;;;;;;;35.73;16.13;;;0.90;99.90;;;;;;5079816;28;20502;-70
2023/03/04 01:36:31;;;;;;;40.10;15.67;;;0.90;99.90;;;;;;5074610;28;20515;-70
2023/03/04 01:38:59;;;;;;;33.90;16.70;;;0.90;99.90;;;;;;5076708;28;20459;-71
2023/03/04 01:41:26;;;;;;;39.97;17.00;;;1.00;99.90;;;;;;5081321;28;20587;-70
2023/03/04 01:43:55;;;;;;;34.33;16.63;;;1.00;99.90;;;;;;5072976;28;20556;-70
2023/03/04 01:46:22;;;;;;;35.97;17.10;;;1.00;99.90;;;;;;5073510;28;20460;-70
2023/03/04 01:48:49;;;;;;;36.47;17.50;;;1.10;99.90;;;;;;5072598;28;20493;-70
2023/03/04 01:51:18;;;;;;;41.97;17.10;;;1.10;99.90;;;;;;5072721;28;20854;-70
2023/03/04 01:53:46;;;;;;;40.70;16.63;;;1.20;99.90;;;;;;5074262;28;20514;-70
2023/03/04 01:56:19;;;;;;;35.80;16.20;;;1.20;99.90;;;;;;5077207;28;20506;-70
2023/03/04 01:59:05;;;;;;;35.27;16.97;;;1.30;99.90;;;;;;5072500;28;20935;-70
2023/03/04 02:01:32;;;;;;;42.00;17.93;;;1.30;99.90;;;;;;5076285;28;20538;-70
2023/03/04 02:03:59;;;;;;;36.90;17.23;;;1.30;99.90;;;;;;5072749;28;20504;-70
2023/03/04 02:06:25;;;;;;;36.03;18.60;;;1.40;99.90;;;;;;5072386;28;21003;-70
2023/03/04 02:08:52;;;;;;;31.10;15.83;;;1.40;99.90;;;;;;5077704;28;20525;-70
2023/03/04 02:11:20;;;;;;;37.27;17.33;;;1.40;99.90;;;;;;5072456;28;20901;-70
2023/03/04 02:13:47;;;;;;;40.97;18.20;;;1.40;99.90;;;;;;5072224;28;20472;-70
2023/03/04 02:16:13;;;;;;;37.73;18.30;;;1.40;99.90;;;;;;5072517;28;21361;-70
2023/03/04 02:18:40;;;;;;;43.07;19.73;;;1.40;99.90;;;;;;5072530;28;20528;-70
2023/03/04 02:21:14;;;;;;;42.43;18.40;;;1.40;99.90;;;;;;5071488;28;20997;-70
2023/03/04 02:23:46;;;;;;;38.13;17.87;;;1.40;99.90;;;;;;5072478;28;20476;-70
2023/03/04 02:26:18;;;;;;;37.47;17.50;;;1.40;99.90;;;;;;5072182;28;20511;-70
2023/03/04 02:28:46;;;;;;;43.73;18.80;;;1.40;99.90;;;;;;5071976;28;20454;-69
2023/03/04 02:31:23;;;;;;;35.37;18.33;;;1.50;99.90;;;;;;5079666;28;20449;-70
2023/03/04 02:33:51;;;;;;;39.33;16.70;;;1.50;99.90;;;;;;5079961;28;20536;-69
2023/03/04 02:36:18;;;;;;;38.33;17.97;;;1.50;99.90;;;;;;5078401;28;20455;-70
2023/03/04 02:38:45;;;;;;;41.30;18.47;;;1.50;99.90;;;;;;5071606;28;20893;-70
2023/03/04 02:41:13;;;;;;;38.00;17.13;;;1.50;99.90;;;;;;5080832;28;21012;-70
2023/03/04 02:43:43;;;;;;;35.70;16.90;;;1.60;99.90;;;;;;5074452;28;20473;-70
2023/03/04 02:46:12;;;;;;;36.83;17.60;;;1.50;99.90;;;;;;5072814;28;20941;-69
2023/03/04 02:48:39;;;;;;;41.10;18.70;;;1.40;99.90;;;;;;5071454;28;20455;-70
2023/03/04 02:51:06;;;;;;;41.50;18.60;;;1.40;99.90;;;;;;5071588;28;20452;-70
2023/03/04 02:53:32;;;;;;;40.77;18.93;;;1.40;99.90;;;;;;5071537;28;20478;-70
2023/03/04 02:55:59;;;;;;;42.13;17.20;;;1.40;99.90;;;;;;5071872;28;20799;-70
2023/03/04 02:58:26;;;;;;;39.10;17.60;;;1.40;99.90;;;;;;5078486;28;20944;-70
2023/03/04 03:00:54;;;;;;;39.30;18.93;;;1.50;99.90;;;;;;5071629;28;20547;-70
2023/03/04 03:03:20;;;;;;;35.50;17.73;;;1.50;99.90;;;;;;5074043;28;21009;-71
2023/03/04 03:05:47;;;;;;;36.07;18.60;;;1.50;99.90;;;;;;5071562;28;20437;-70
2023/03/04 03:08:14;;;;;;;36.70;17.83;;;1.50;99.90;;;;;;5080067;28;20459;-70
2023/03/04 03:10:40;;;;;;;38.30;18.17;;;1.60;99.90;;;;;;5071334;28;20452;-70
2023/03/04 03:13:07;;;;;;;46.10;19.60;;;1.60;99.90;;;;;;5074806;28;20986;-70
2023/03/04 03:15:34;;;;;;;34.57;18.60;;;1.60;99.90;;;;;;5072979;28;20506;-70
2023/03/04 03:18:02;;;;;;;42.77;19.50;;;1.70;99.90;;;;;;5077767;28;20927;-70
2023/03/04 03:20:28;;;;;;;41.03;19.00;;;1.60;99.90;;;;;;5071319;28;20458;-70
2023/03/04 03:22:55;;;;;;;51.97;20.60;;;1.60;99.90;;;;;;5071313;28;20494;-70
2023/03/04 03:25:22;;;;;;;43.93;20.60;;;1.60;99.90;;;;;;5071453;28;20882;-69
2023/03/04 03:27:48;;;;;;;39.87;19.57;;;1.70;99.90;;;;;;5071085;28;20804;-70
2023/03/04 03:30:17;;;;;;;44.63;20.77;;;1.60;99.90;;;;;;5071011;28;20453;-70
2023/03/04 03:32:44;;;;;;;44.73;20.13;;;1.70;99.90;;;;;;5070612;28;20484;-70
2023/03/04 03:35:12;;;;;;;44.93;21.10;;;1.70;99.90;;;;;;5071499;28;20444;-70
2023/03/04 03:37:39;;;;;;;47.63;22.87;;;1.70;99.90;;;;;;5070904;28;20951;-70
2023/03/04 03:40:06;;;;;;;45.17;21.23;;;1.80;99.90;;;;;;5081430;28;20523;-70
2023/03/04 03:42:33;;;;;;;51.53;22.97;;;1.70;99.90;;;;;;5071175;28;21037;-70
2023/03/04 03:44:59;;;;;;;46.00;21.33;;;1.70;99.90;;;;;;5071542;28;21028;-70
2023/03/04 03:47:26;;;;;;;45.97;22.87;;;1.70;99.90;;;;;;5071106;28;20461;-70
2023/03/04 03:49:53;;;;;;;45.00;21.70;;;1.80;99.90;;;;;;5070845;28;20458;-70
2023/03/04 03:52:20;;;;;;;40.53;21.23;;;1.90;99.90;;;;;;5071157;28;20451;-70
2023/03/04 03:54:47;;;;;;;46.97;20.20;;;1.90;99.90;;;;;;5074653;28;20474;-70
2023/03/04 03:57:14;;;;;;;44.80;23.23;;;1.80;99.90;;;;;;5071261;28;20909;-70
2023/03/04 03:59:40;;;;;;;45.70;21.77;;;1.80;99.90;;;;;;5081127;28;20452;-70
2023/03/04 04:02:07;;;;;;;49.80;22.97;;;1.80;99.90;;;;;;5080269;28;20482;-71
2023/03/04 04:04:34;;;;;;;48.00;22.77;;;1.80;99.90;;;;;;5070763;28;20498;-70
2023/03/04 04:07:00;;;;;;;44.03;22.80;;;1.80;99.90;;;;;;5073351;28;20456;-70
2023/03/04 04:09:28;;;;;;;39.97;22.57;;;1.80;99.90;;;;;;5073835;28;20463;-70
2023/03/04 04:11:56;;;;;;;41.50;22.87;;;1.90;99.90;;;;;;5070934;28;20863;-70
2023/03/04 04:14:22;;;;;;;42.17;21.17;;;1.90;99.90;;;;;;5070742;28;20474;-69
2023/03/04 04:16:49;;;;;;;43.40;22.27;;;1.90;99.90;;;;;;5070766;28;20448;-70
2023/03/04 04:19:20;;;;;;;48.30;23.30;;;1.90;99.90;;;;;;5070439;28;20543;-70
2023/03/04 04:21:47;;;;;;;44.07;22.37;;;1.90;99.90;;;;;;5073391;28;20889;-69
2023/03/04 04:24:14;;;;;;;45.13;20.93;;;1.90;99.90;;;;;;5075833;28;20473;-70
2023/03/04 04:26:42;;;;;;;45.40;22.27;;;2.00;99.90;;;;;;5070818;28;20852;-70
2023/03/04 04:29:10;;;;;;;40.63;22.47;;;2.00;99.90;;;;;;5070507;28;20445;-70
2023/03/04 04:31:36;;;;;;;45.83;21.60;;;2.00;99.90;;;;;;5070720;28;20501;-70
2023/03/04 04:34:03;;;;;;;45.37;23.40;;;2.00;99.90;;;;;;5070504;28;20498;-69
2023/03/04 04:36:30;;;;;;;44.30;22.27;;;2.00;99.90;;;;;;5077720;28;20454;-70
2023/03/04 04:38:56;;;;;;;48.43;22.83;;;2.00;99.90;;;;;;5070311;28;20460;-70
2023/03/04 04:41:26;;;;;;;46.47;22.07;;;2.00;99.90;;;;;;5070484;28;20962;-70
2023/03/04 04:43:54;;;;;;;44.10;21.70;;;2.00;99.90;;;;;;5073574;28;20498;-69
2023/03/04 04:46:21;;;;;;;42.67;21.20;;;2.00;99.90;;;;;;5075852;28;20451;-70
2023/03/04 04:48:47;;;;;;;45.83;22.43;;;2.00;99.90;;;;;;5073649;28;20454;-70
2023/03/04 04:51:14;;;;;;;48.10;21.20;;;2.00;99.90;;;;;;5074024;28;20444;-69
2023/03/04 04:53:41;;;;;;;45.43;22.00;;;2.00;99.90;;;;;;5073881;28;20473;-69
2023/03/04 04:56:12;;;;;;;41.67;21.37;;;2.00;99.90;;;;;;5073519;28;20931;-69
2023/03/04 04:58:39;;;;;;;42.30;21.87;;;2.00;99.90;;;;;;5080488;28;20450;-69
2023/03/04 05:01:08;;;;;;;46.40;21.80;;;2.10;99.90;;;;;;5075130;28;20996;-69
2023/03/04 05:03:36;;;;;;;45.13;22.20;;;2.00;99.90;;;;;;5076450;28;20543;-70
2023/03/04 05:06:03;;;;;;;46.13;22.30;;;2.00;99.90;;;;;;5073800;28;20448;-70
2023/03/04 05:08:30;;;;;;;40.57;20.30;;;2.00;99.90;;;;;;5073512;28;21015;-70
2023/03/04 05:10:56;;;;;;;38.97;20.40;;;2.10;99.90;;;;;;5073488;28;20499;-70
2023/03/04 05:13:23;;;;;;;38.10;19.77;;;2.10;99.90;;;;;;5073456;28;20479;-69
2023/03/04 05:15:52;;;;;;;40.60;19.63;;;2.10;99.90;;;;;;5080633;28;20458;-69
2023/03/04 05:18:21;;;;;;;42.10;20.70;;;2.00;99.90;;;;;;5073700;28;20485;-69
2023/03/04 05:20:51;;;;;;;41.10;20.50;;;2.00;99.90;;;;;;5073214;28;20870;-69
2023/03/04 05:23:18;;;;;;;45.43;21.43;;;2.00;99.90;;;;;;5073512;28;20493;-70
2023/03/04 05:25:44;;;;;;;42.83;20.63;;;2.00;99.90;;;;;;5086132;28;20459;-70
2023/03/04 05:28:13;;;;;;;33.70;20.13;;;2.00;99.90;;;;;;5073266;28;20950;-70
2023/03/04 05:30:41;;;;;;;36.27;20.80;;;2.00;99.90;;;;;;5073178;28;20494;-70
2023/03/04 05:33:08;;;;;;;36.83;18.77;;;2.00;99.90;;;;;;5073387;28;20516;-70
2023/03/04 05:35:36;;;;;;;40.47;18.00;;;2.00;99.90;;;;;;5073072;28;20532;-69
2023/03/04 05:38:03;;;;;;;33.27;18.90;;;2.10;99.90;;;;;;5072956;28;21967;-69
2023/03/04 05:40:30;;;;;;;36.67;18.03;;;2.00;99.90;;;;;;5079946;28;20517;-70
2023/03/04 05:42:57;;;;;;;34.90;17.73;;;2.00;99.90;;;;;;5073201;28;20494;-70
2023/03/04 05:45:25;;;;;;;37.37;17.40;;;2.10;99.90;;;;;;5076034;28;20451;-74
2023/03/04 05:47:52;;;;;;;35.07;19.50;;;2.10;99.90;;;;;;5072696;28;20455;-70
2023/03/04 05:50:20;;;;;;;34.70;17.57;;;2.10;99.90;;;;;;5079507;28;20871;-70
2023/03/04 05:52:48;;;;;;;35.10;17.73;;;2.10;99.90;;;;;;5078224;28;20456;-70
2023/03/04 05:55:15;;;;;;;36.90;16.60;;;2.10;99.90;;;;;;5071609;28;20481;-70
2023/03/04 05:57:42;;;;;;;47.40;16.80;;;2.10;99.90;;;;;;5078849;28;20461;-70
2023/03/04 06:00:11;;;;;;;36.63;17.17;;;2.20;99.90;;;;;;5072574;28;20459;-70
2023/03/04 06:02:38;;;;;;;31.63;17.30;;;2.10;99.90;;;;;;5076476;28;20488;-70
2023/03/04 06:05:07;;;;;;;36.07;15.40;;;2.20;99.90;;;;;;5072679;28;20459;-70
2023/03/04 06:07:33;;;;;;;30.20;16.53;;;2.20;99.90;;;;;;5072452;28;20505;-70
2023/03/04 06:10:01;;;;;;;30.33;14.67;;;2.10;99.90;;;;;;5072545;28;20455;-70
2023/03/04 06:12:28;;;;;;;41.37;16.33;;;2.30;99.90;;;;;;5072549;28;20440;-70
2023/03/04 06:14:55;;;;;;;27.20;15.00;;;2.20;99.90;;;;;;5072248;28;20994;-70
2023/03/04 06:17:22;;;;;;;40.47;15.97;;;2.20;99.90;;;;;;5073527;28;20505;-72
2023/03/04 06:19:48;;;;;;;29.27;14.57;;;2.20;99.90;;;;;;5072176;28;20450;-72
2023/03/04 06:22:15;;;;;;;30.70;14.33;;;2.20;99.90;;;;;;5072279;28;20508;-72
2023/03/04 06:24:41;;;;;;;30.17;13.77;;;2.30;99.90;;;;;;5072231;28;20526;-72
2023/03/04 06:27:10;;;;;;;31.50;12.93;;;2.30;99.90;;;;;;5072075;28;20838;-73
2023/03/04 06:29:36;;;;;;;33.10;13.60;;;2.30;99.90;;;;;;5079971;28;20452;-73
2023/03/04 06:32:03;;;;;;;30.03;12.43;;;2.30;99.90;;;;;;5071827;28;20509;-73
2023/03/04 06:34:30;;;;;;;34.53;12.70;;;2.30;99.90;;;;;;5072221;28;20460;-73
2023/03/04 06:36:56;;;;;;;27.83;13.20;;;2.40;99.90;;;;;;5071789;28;20450;-74
2023/03/04 06:39:23;;;;;;;30.03;13.70;;;2.40;99.90;;;;;;5071017;28;21010;-73
2023/03/04 06:41:49;;;;;;;35.90;14.20;;;2.40;99.90;;;;;;5071556;28;20466;-74
2023/03/04 06:44:17;;;;;;;21.37;12.10;;;2.50;99.90;;;;;;5074618;28;20491;-73
2023/03/04 06:46:44;;;;;;;31.03;13.50;;;2.50;99.90;;;;;;5081672;28;20502;-73
2023/03/04 06:49:11;;;;;;;33.43;12.83;;;2.50;99.90;;;;;;5071190;28;20454;-74
2023/03/04 06:51:37;;;;;;;25.40;12.00;;;2.50;99.90;;;;;;5071747;28;20456;-73
2023/03/04 06:54:04;;;;;;;38.90;14.67;;;2.60;99.90;;;;;;5071574;28;20468;-73
2023/03/04 06:56:31;;;;;;;30.30;13.53;;;2.60;99.90;;;;;;5079532;28;20453;-73
2023/03/04 06:58:58;;;;;;;32.03;14.87;;;2.60;99.90;;;;;;5070838;28;20456;-73
2023/03/04 07:01:28;;;;;;;36.27;12.87;;;2.60;99.90;;;;;;5072553;28;20522;-73
2023/03/04 07:03:56;;;;;;;22.93;11.60;;;2.70;99.90;;;;;;5070643;28;20919;-74
2023/03/04 07:06:25;;;;;;;27.80;11.37;;;2.70;99.90;;;;;;5070801;28;20932;-73
2023/03/04 07:08:52;;;;;;;32.57;14.47;;;2.70;99.90;;;;;;5070911;28;20452;-73
2023/03/04 07:11:19;;;;;;;26.80;12.53;;;2.70;99.90;;;;;;5072801;28;20827;-74
2023/03/04 07:13:46;;;;;;;29.63;12.77;;;2.80;99.90;;;;;;5072839;28;20467;-73
2023/03/04 07:16:15;;;;;;;27.57;12.87;;;2.80;99.90;;;;;;5069824;28;20588;-74
2023/03/04 07:18:43;;;;;;;31.00;11.20;;;2.80;99.90;;;;;;5071743;28;20449;-73
2023/03/04 07:21:13;;;;;;;37.37;11.80;;;2.80;99.90;;;;;;5082261;28;20878;-73
2023/03/04 07:23:40;;;;;;;28.73;12.20;;;2.90;99.90;;;;;;5072756;28;20491;-73
2023/03/04 07:26:06;;;;;;;22.97;11.17;;;2.90;99.90;;;;;;5078243;28;20512;-73
2023/03/04 07:28:34;;;;;;;24.10;11.77;;;2.90;99.90;;;;;;5083962;28;20675;-74
2023/03/04 07:31:08;;;;;;;25.20;11.73;;;3.00;99.90;;;;;;5083607;28;20524;-74
2023/03/04 07:33:35;;;;;;;31.10;12.13;;;3.00;99.90;;;;;;5079611;28;20465;-74
2023/03/04 07:36:03;;;;;;;33.93;11.30;;;3.00;99.90;;;;;;5071373;28;20452;-74
2023/03/04 07:38:30;;;;;;;33.27;12.13;;;3.00;99.90;;;;;;5071055;28;20513;-74
2023/03/04 07:40:57;;;;;;;22.53;10.27;;;3.00;99.90;;;;;;5075380;28;20447;-73
2023/03/04 07:43:23;;;;;;;45.93;11.97;;;3.00;99.90;;;;;;5070910;28;21064;-75
2023/03/04 07:45:50;;;;;;;29.43;11.60;;;3.10;99.90;;;;;;5074616;28;20458;-75
2023/03/04 07:48:17;;;;;;;28.87;10.43;;;3.10;99.90;;;;;;5070849;28;20456;-75
2023/03/04 07:50:43;;;;;;;29.33;11.60;;;3.20;99.90;;;;;;5080020;28;20452;-74
2023/03/04 07:53:11;;;;;;;33.13;10.67;;;3.20;99.90;;;;;;5073417;28;20990;-71
2023/03/04 07:55:38;;;;;;;31.93;11.00;;;3.30;99.90;;;;;;5079763;28;20462;-71
2023/03/04 07:58:05;;;;;;;26.10;11.17;;;3.30;99.90;;;;;;5072854;28;20929;-76
2023/03/04 08:00:31;;;;;;;27.07;10.67;;;3.40;99.90;;;;;;5077383;28;20451;-73
2023/03/04 08:02:58;;;;;;;37.67;11.13;;;3.40;99.90;;;;;;5081889;28;20521;-72
2023/03/04 08:05:24;;;;;;;26.40;9.93;;;3.40;99.90;;;;;;5070795;28;20851;-72
2023/03/04 08:07:51;;;;;;;37.97;12.40;;;3.50;99.90;;;;;;5074565;28;20459;-72
2023/03/04 08:10:19;;;;;;;26.53;10.47;;;3.50;99.90;;;;;;5071025;28;20513;-73
2023/03/04 08:12:46;;;;;;;31.83;11.33;;;3.50;99.90;;;;;;5080272;28;21064;-72
2023/03/04 08:15:12;;;;;;;28.30;11.77;;;3.50;99.90;;;;;;5077603;28;20446;-73
2023/03/04 08:17:39;;;;;;;25.07;10.80;;;3.50;99.90;;;;;;5070003;28;20448;-73
2023/03/04 08:20:07;;;;;;;27.73;10.80;;;3.60;99.90;;;;;;5073251;28;20456;-72
2023/03/04 08:22:34;;;;;;;32.50;12.13;;;3.60;99.90;;;;;;5074771;28;20943;-72
2023/03/04 08:25:00;;;;;;;33.70;11.23;;;3.70;99.90;;;;;;5074227;28;20525;-72
2023/03/04 08:27:28;;;;;;;37.73;11.90;;;3.70;99.90;;;;;;5079772;28;20455;-72
2023/03/04 08:29:55;;;;;;;26.23;10.30;;;3.80;99.90;;;;;;5077032;28;20526;-73
2023/03/04 08:32:22;;;;;;;30.53;11.30;;;3.90;99.90;;;;;;5094501;28;20920;-72
2023/03/04 08:34:49;;;;;;;35.37;11.00;;;3.90;99.90;;;;;;5090562;28;20471;-71
2023/03/04 08:37:15;;;;;;;22.40;10.57;;;3.90;99.90;;;;;;5079705;28;20509;-71
2023/03/04 08:39:42;;;;;;;23.50;8.93;;;4.00;99.90;;;;;;5090760;28;20455;-72
2023/03/04 08:42:08;;;;;;;24.43;9.87;;;4.00;99.90;;;;;;5093342;28;20986;-71
2023/03/04 08:44:36;;;;;;;24.67;10.20;;;4.00;99.90;;;;;;5087469;28;20563;-72
2023/03/04 08:47:08;;;;;;;30.10;9.97;;;4.00;99.90;;;;;;5085779;28;20455;-72
2023/03/04 08:49:34;;;;;;;26.70;9.87;;;4.10;99.90;;;;;;5094029;28;20451;-71
2023/03/04 08:52:01;;;;;;;25.30;10.18;;;4.10;99.90;;;;;;5083190;28;20942;-73
2023/03/04 08:54:27;;;;;;;26.40;9.37;;;4.20;99.90;;;;;;5084319;28;20213;-72
2023/03/04 08:56:54;;;;;;;25.57;9.90;;;4.30;99.90;;;;;;5086409;28;20498;-72
2023/03/04 08:59:21;;;;;;;31.17;9.37;;;4.30;99.90;;;;;;5080133;28;20455;-71
2023/03/04 09:01:49;;;;;;;27.30;9.07;;;4.30;99.90;;;;;;5081731;28;20448;-71
2023/03/04 09:04:16;;;;;;;24.70;8.07;;;4.30;99.90;;;;;;5090488;28;20484;-70
2023/03/04 09:06:43;;;;;;;29.73;9.23;;;4.40;99.90;;;;;;5090552;28;20947;-70
2023/03/04 09:09:09;;;;;;;26.93;8.80;;;4.40;99.90;;;;;;5093867;28;20439;-70
2023/03/04 09:11:36;;;;;;;25.80;9.47;;;4.40;99.90;;;;;;5093542;28;20449;-71
2023/03/04 09:14:03;;;;;;;21.40;8.10;;;4.50;99.90;;;;;;5093459;28;20467;-72
2023/03/04 09:16:30;;;;;;;32.10;10.40;;;4.50;99.90;;;;;;5084577;28;20478;-72
2023/03/04 09:18:59;;;;;;;23.43;8.17;;;4.60;99.90;;;;;;5084043;28;20448;-72
2023/03/04 09:21:26;;;;;;;17.63;8.50;;;4.70;99.90;;;;;;5093959;28;20473;-72
2023/03/04 09:23:52;;;;;;;29.00;9.67;;;4.70;99.90;;;;;;5086909;28;20488;-72
2023/03/04 09:26:22;;;;;;;22.87;8.80;;;4.80;99.90;;;;;;5094204;28;20447;-72
2023/03/04 09:28:52;;;;;;;23.23;8.20;;;4.90;99.90;;;;;;5087265;28;20994;-74
2023/03/04 09:31:19;;;;;;;21.40;9.20;;;4.90;99.90;;;;;;5093022;28;20445;-74
2023/03/04 09:33:46;;;;;;;22.47;7.97;;;5.00;99.90;;;;;;5092131;28;20466;-74
2023/03/04 09:36:15;;;;;;;19.23;8.00;;;5.00;99.90;;;;;;5093778;28;20481;-74
2023/03/04 09:38:42;;;;;;;22.33;7.50;;;5.00;99.90;;;;;;5086634;28;20486;-74
2023/03/04 09:41:13;;;;;;;29.10;8.90;;;4.90;99.90;;;;;;5083900;28;20501;-74
2023/03/04 09:43:41;;;;;;;27.73;8.73;;;4.90;99.90;;;;;;5083691;28;20488;-73
2023/03/04 09:46:12;;;;;;;21.73;7.77;;;5.00;99.90;;;;;;5086887;28;20861;-75
2023/03/04 09:48:43;;;;;;;20.87;8.93;;;5.00;99.90;;;;;;5085860;28;20956;-74
2023/03/04 09:51:21;;;;;;;20.73;7.80;;;5.00;99.90;;;;;;5085498;28;20463;-74
2023/03/04 09:53:58;;;;;;;16.33;7.43;;;5.00;99.90;;;;;;5086850;28;20479;-74
2023/03/04 09:56:27;;;;;;;19.50;8.13;;;5.00;99.90;;;;;;5089032;28;20501;-75
2023/03/04 09:59:03;;;;;;;30.63;8.10;;;5.00;99.90;;;;;;5086101;28;20850;-75
2023/03/04 10:01:34;;;;;;;16.60;7.23;;;5.10;99.90;;;;;;5080471;28;20459;-75
2023/03/04 10:04:06;;;;;;;16.23;7.50;;;5.10;99.90;;;;;;5088353;28;20484;-76
2023/03/04 10:06:34;;;;;;;20.00;7.70;;;5.10;99.90;;;;;;5088404;28;20460;-75
2023/03/04 10:09:06;;;;;;;22.50;6.73;;;5.10;99.90;;;;;;5093028;28;20459;-75
2023/03/04 10:11:37;;;;;;;17.13;7.10;;;5.10;99.90;;;;;;5092642;28;20489;-72
2023/03/04 10:14:16;;;;;;;17.53;6.80;;;5.10;99.90;;;;;;5091245;28;20476;-73
2023/03/04 10:16:51;;;;;;;16.80;6.83;;;5.10;99.90;;;;;;5091844;28;20455;-75
2023/03/04 10:19:38;;;;;;;14.77;6.30;;;5.10;99.90;;;;;;5086320;28;20443;-73
2023/03/04 10:22:17;;;;;;;17.33;6.27;;;5.20;99.90;;;;;;5093523;28;20439;-74
2023/03/04 10:24:46;;;;;;;17.70;5.83;;;5.20;99.90;;;;;;5079017;28;20914;-73
2023/03/04 10:27:15;;;;;;;16.73;6.70;;;5.20;99.90;;;;;;5089002;28;20455;-74
2023/03/04 10:29:41;;;;;;;19.63;6.83;;;5.20;99.90;;;;;;5090727;28;20508;-75
2023/03/04 10:32:13;;;;;;;16.00;5.87;;;5.20;99.90;;;;;;5091174;28;20456;-74
2023/03/04 10:34:39;;;;;;;15.67;6.23;;;5.20;99.90;;;;;;5091161;28;20516;-73
2023/03/04 10:37:08;;;;;;;15.63;6.10;;;5.30;99.90;;;;;;5090029;28;20452;-73
2023/03/04 10:39:39;;;;;;;15.20;5.57;;;5.40;99.90;;;;;;5091866;28;20944;-70
2023/03/04 10:42:22;;;;;;;20.70;5.90;;;5.50;99.90;;;;;;5091401;28;20459;-74
2023/03/04 10:44:54;;;;;;;13.93;5.67;;;5.60;99.90;;;;;;5083203;28;20545;-74
2023/03/04 10:47:23;;;;;;;13.67;5.03;;;5.80;99.90;;;;;;5083274;28;20501;-74
2023/03/04 10:49:52;;;;;;;11.47;5.60;;;5.90;99.90;;;;;;5080991;28;20458;-74
2023/03/04 10:52:28;;;;;;;11.63;4.90;;;6.10;99.90;;;;;;5088210;28;20894;-73
2023/03/04 10:54:58;;;;;;;14.27;5.33;;;6.30;99.90;;;;;;5077047;28;20863;-74
2023/03/04 10:57:32;;;;;;;17.83;5.10;;;6.30;99.90;;;;;;5090386;28;20496;-74
2023/03/04 11:00:00;;;;;;;10.17;5.17;;;6.40;99.90;;;;;;5081905;28;20610;-74
2023/03/04 11:02:28;;;;;;;8.80;4.50;;;6.40;99.90;;;;;;5085907;28;20459;-75
2023/03/04 11:05:04;;;;;;;10.27;4.70;;;6.50;99.90;;;;;;5087324;28;20494;-74
2023/03/04 11:07:31;;;;;;;9.20;4.27;;;6.60;99.90;;;;;;5090213;28;20449;-75
2023/03/04 11:10:11;;;;;;;9.07;3.80;;;6.60;99.90;;;;;;5091201;28;21037;-75
2023/03/04 11:12:38;;;;;;;13.70;3.83;;;6.60;99.90;;;;;;5091549;28;20504;-75
2023/03/04 11:15:19;;;;;;;7.40;4.23;;;6.60;99.90;;;;;;5084762;28;20492;-75
2023/03/04 11:17:50;;;;;;;10.57;4.57;;;6.60;99.90;;;;;;5083746;28;20509;-75
2023/03/04 11:20:25;;;;;;;8.43;3.87;;;6.50;99.90;;;;;;5080153;28;20439;-75
2023/03/04 11:22:54;;;;;;;7.97;3.53;;;6.50;99.90;;;;;;5081796;28;20444;-75
2023/03/04 11:25:26;;;;;;;9.10;3.73;;;6.60;99.90;;;;;;5079942;28;20489;-75
2023/03/04 11:27:56;;;;;;;8.30;3.60;;;6.50;99.90;;;;;;5078647;28;20956;-75
2023/03/04 11:30:34;;;;;;;7.30;3.50;;;6.50;99.90;;;;;;5081257;28;20825;-76
2023/03/04 11:33:10;;;;;;;7.93;3.70;;;6.70;99.90;;;;;;5078719;28;20916;-75
2023/03/04 11:35:46;;;;;;;5.80;3.50;;;6.80;99.90;;;;;;5076299;28;20452;-75
2023/03/04 11:38:19;;;;;;;5.10;3.60;;;7.00;99.90;;;;;;5078343;28;20467;-75
2023/03/04 11:40:52;;;;;;;6.93;3.77;;;7.20;99.90;;;;;;5078609;28;20462;-76
2023/03/04 11:43:23;;;;;;;9.93;4.10;;;7.30;99.90;;;;;;5078639;28;20519;-75
2023/03/04 11:46:12;;;;;;;17.20;3.37;;;7.30;99.90;;;;;;5083452;28;20546;-74
2023/03/04 11:48:49;;;;;;;6.20;3.77;;;7.40;99.90;;;;;;5077213;28;20518;-75
2023/03/04 11:51:23;;;;;;;11.03;3.70;;;7.50;99.90;;;;;;5080879;28;20467;-76
2023/03/04 11:54:02;;;;;;;6.93;3.83;;;7.50;99.90;;;;;;5082336;28;20467;-76
2023/03/04 11:56:37;;;;;;;10.00;4.30;;;7.60;99.90;;;;;;5095038;28;20486;-75
2023/03/04 11:59:31;;;;;;;8.30;3.63;;;7.70;99.90;;;;;;5095495;28;20453;-71
2023/03/04 12:02:12;;;;;;;6.72;3.35;;;7.70;99.90;;;;;;5083367;28;20934;-75
2023/03/04 12:04:59;;;;;;;5.37;3.67;;;7.90;99.90;;;;;;5095382;28;20236;-76
2023/03/04 12:07:46;;;;;;;10.87;4.57;;;8.10;99.90;;;;;;5088479;28;20439;-75
2023/03/04 12:10:24;;;;;;;8.90;3.37;;;8.30;99.90;;;;;;5093757;28;20863;-76
2023/03/04 12:13:12;;;;;;;11.73;4.10;;;8.40;99.90;;;;;;5094949;28;20448;-79
2023/03/04 12:15:49;;;;;;;7.23;4.00;;;8.10;99.90;;;;;;5094626;28;20490;-75
2023/03/04 12:18:40;;;;;;;5.80;3.20;;;8.20;99.90;;;;;;5094969;28;20447;-76
2023/03/04 12:21:31;;;;;;;5.05;3.30;;;8.20;99.90;;;;;;5093610;28;20441;-74
2023/03/04 12:24:22;;;;;;;9.03;4.20;;;8.30;99.90;;;;;;5102512;28;20229;-73
2023/03/04 12:26:54;;;;;;;7.00;3.40;;;8.70;99.90;;;;;;5094342;28;20867;-76
2023/03/04 12:29:31;;;;;;;5.40;3.13;;;9.00;99.90;;;;;;5091334;28;20446;-79
2023/03/04 12:32:04;;;;;;;5.97;3.10;;;9.00;99.90;;;;;;5090894;28;20262;-76
2023/03/04 12:34:37;;;;;;;4.77;2.93;;;9.10;99.90;;;;;;5089520;28;20924;-76
2023/03/04 12:37:21;;;;;;;8.50;3.10;;;9.10;99.90;;;;;;5093979;28;20470;-76
2023/03/04 12:39:58;;;;;;;5.03;3.30;;;9.10;99.90;;;;;;5094575;28;20633;-76
2023/03/04 12:42:35;;;;;;;5.60;2.80;;;8.60;99.90;;;;;;5094430;28;20433;-76
2023/03/04 12:45:16;;;;;;;9.10;3.70;;;8.40;99.90;;;;;;5096660;28;20503;-76
2023/03/04 12:47:52;;;;;;;10.10;4.20;;;8.40;99.90;;;;;;5094847;28;20516;-76
2023/03/04 12:50:31;;;;;;;5.70;3.30;;;8.40;99.90;;;;;;5086433;28;20505;-77
2023/03/04 12:53:05;;;;;;;4.70;3.23;;;8.40;99.90;;;;;;5093772;28;20564;-77